Time;durP1;ratioP1;P1;durP2;ratioP2;P2;SDS_P1;SDS_P2;PMS_P1;PMS_P2;Temp;Humidity;BMP_temperature;BMP_pressure;BME280_temperature;BME280_humidity;BME280_pressure;Samples;Min_cycle;Max_cycle;Signal;HPM_P1;HPM_P2
2022/12/29 00:00:50;;;;;;;1.23;0.60;;;12.80;99.90;;;;;;5034117;28;20169;-79
2022/12/29 00:03:16;;;;;;;1.20;0.50;;;12.80;99.90;;;;;;5014145;28;20204;-79
2022/12/29 00:05:41;;;;;;;1.33;0.60;;;12.70;99.90;;;;;;5031649;28;20588;-79
2022/12/29 00:08:07;;;;;;;1.10;0.50;;;12.70;99.90;;;;;;5031322;28;20623;-78
2022/12/29 00:10:33;;;;;;;1.20;0.50;;;12.70;99.90;;;;;;5047765;28;20602;-78
2022/12/29 00:15:43;;;;;;;1.65;0.50;;;12.60;99.90;;;;;;5049166;28;20200;-78
2022/12/29 00:18:08;;;;;;;1.23;0.60;;;12.70;99.90;;;;;;5049214;28;20267;-78
2022/12/29 00:37:14;;;;;;;2.03;0.60;;;12.80;99.90;;;;;;5035645;28;20951;-80
2022/12/29 00:45:08;;;;;;;1.30;0.40;;;12.90;99.90;;;;;;5048716;28;20556;-79
2022/12/29 00:47:34;;;;;;;1.10;0.40;;;12.90;99.90;;;;;;5014532;28;20568;-80
2022/12/29 00:50:00;;;;;;;1.10;0.40;;;13.00;99.90;;;;;;5047745;28;20254;-80
2022/12/29 00:52:26;;;;;;;1.10;0.50;;;13.10;99.90;;;;;;5014265;28;20196;-80
2022/12/29 00:54:52;;;;;;;1.10;0.40;;;13.10;99.90;;;;;;5014283;28;20568;-79
2022/12/29 00:57:18;;;;;;;1.10;0.40;;;13.10;99.90;;;;;;5014667;28;20180;-80
2022/12/29 00:59:45;;;;;;;1.20;0.40;;;13.20;99.90;;;;;;5030859;28;20255;-80
2022/12/29 01:02:11;;;;;;;1.30;0.50;;;13.20;99.90;;;;;;5049090;28;20510;-80
2022/12/29 01:04:37;;;;;;;1.10;0.40;;;13.20;99.90;;;;;;5038579;28;20589;-80
2022/12/29 01:07:03;;;;;;;1.10;0.47;;;13.30;99.90;;;;;;5012270;28;20569;-80
2022/12/29 01:12:13;;;;;;;1.10;0.40;;;13.40;99.90;;;;;;5000051;28;20587;-80
2022/12/29 01:14:39;;;;;;;1.10;0.40;;;13.40;99.90;;;;;;5021502;28;20616;-81
2022/12/29 01:17:05;;;;;;;1.10;0.40;;;13.40;99.90;;;;;;5034216;28;20173;-80
2022/12/29 01:19:32;;;;;;;1.00;0.40;;;13.50;99.90;;;;;;5015182;28;20687;-79
2022/12/29 01:21:57;;;;;;;1.00;0.40;;;13.50;99.90;;;;;;5015323;28;21259;-79
2022/12/29 01:24:25;;;;;;;1.10;0.40;;;13.50;99.90;;;;;;5034851;28;20681;-80
2022/12/29 01:26:51;;;;;;;1.17;0.40;;;13.50;99.90;;;;;;5016163;28;20169;-79
2022/12/29 01:29:17;;;;;;;1.00;0.40;;;13.60;99.90;;;;;;5019176;28;20622;-79
2022/12/29 01:31:44;;;;;;;1.10;0.40;;;13.70;99.90;;;;;;5009549;28;20585;-79
2022/12/29 01:34:10;;;;;;;1.10;0.40;;;13.70;99.90;;;;;;4996299;28;20585;-79
2022/12/29 01:36:37;;;;;;;1.00;0.40;;;13.70;99.90;;;;;;5026967;28;20209;-79
2022/12/29 01:39:03;;;;;;;1.00;0.40;;;13.70;99.90;;;;;;5042811;28;20682;-81
2022/12/29 01:41:29;;;;;;;1.10;0.40;;;13.80;99.90;;;;;;5034120;28;20597;-80
2022/12/29 01:43:58;;;;;;;1.10;0.40;;;13.80;99.90;;;;;;4984619;28;20307;-79
2022/12/29 01:46:27;;;;;;;1.20;0.40;;;13.80;99.90;;;;;;5035128;28;20929;-79
2022/12/29 01:49:08;;;;;;;1.17;0.50;;;13.90;99.90;;;;;;5016910;28;20620;-79
2022/12/29 01:51:48;;;;;;;1.20;0.40;;;13.90;99.90;;;;;;4988416;28;20618;-79
2022/12/29 01:54:26;;;;;;;1.10;0.40;;;13.90;99.90;;;;;;5014520;28;20580;-79
2022/12/29 01:56:57;;;;;;;1.10;0.40;;;14.00;99.90;;;;;;4998398;28;20587;-79
2022/12/29 01:59:29;;;;;;;1.20;0.50;;;14.00;99.90;;;;;;5031923;28;20739;-80
2022/12/29 02:01:55;;;;;;;1.40;0.50;;;14.00;99.90;;;;;;4996978;28;20682;-80
2022/12/29 02:04:43;;;;;;;1.10;0.40;;;14.10;99.90;;;;;;5021341;28;20993;-80
2022/12/29 02:07:19;;;;;;;1.40;0.43;;;14.10;99.90;;;;;;5034046;28;20571;-80
2022/12/29 02:09:49;;;;;;;1.27;0.40;;;14.10;99.90;;;;;;5033831;28;20619;-80
2022/12/29 02:12:18;;;;;;;1.10;0.50;;;14.10;99.90;;;;;;5017220;28;20638;-80
2022/12/29 02:14:45;;;;;;;3.33;0.70;;;14.10;99.90;;;;;;5051329;28;21079;-80
2022/12/29 02:17:22;;;;;;;1.30;0.50;;;14.10;99.90;;;;;;5018022;28;21189;-81
2022/12/29 02:20:23;;;;;;;1.10;0.40;;;14.10;99.90;;;;;;5018483;28;21015;-80
2022/12/29 02:23:24;;;;;;;1.10;0.40;;;14.10;99.90;;;;;;5023724;28;20966;-79
2022/12/29 02:26:08;;;;;;;1.20;0.43;;;14.10;99.90;;;;;;5014189;28;20690;-80
2022/12/29 02:28:54;;;;;;;1.40;0.50;;;14.10;99.90;;;;;;5033675;28;20579;-80
2022/12/29 02:31:38;;;;;;;1.77;0.50;;;14.10;99.90;;;;;;5049174;28;20659;-80
2022/12/29 02:34:22;;;;;;;1.43;0.50;;;14.20;99.90;;;;;;5035150;28;20599;-80
2022/12/29 02:36:51;;;;;;;1.53;0.50;;;14.20;99.90;;;;;;5037621;28;20595;-79
2022/12/29 02:39:29;;;;;;;1.93;0.50;;;14.20;99.90;;;;;;5024266;28;20647;-79
2022/12/29 02:42:09;;;;;;;1.30;0.50;;;14.20;99.90;;;;;;5021856;28;20607;-81
2022/12/29 02:44:44;;;;;;;1.60;0.50;;;14.30;99.90;;;;;;5019358;28;20626;-79
2022/12/29 02:47:35;;;;;;;1.30;0.47;;;14.30;99.90;;;;;;5019274;28;20571;-79
2022/12/29 02:50:15;;;;;;;1.60;0.53;;;14.30;99.90;;;;;;5006043;28;20628;-80
2022/12/29 02:52:54;;;;;;;1.30;0.50;;;14.30;99.90;;;;;;4998756;28;21147;-80
2022/12/29 02:55:20;;;;;;;1.20;0.50;;;14.30;99.90;;;;;;4998227;28;20592;-79
2022/12/29 02:57:46;;;;;;;1.40;0.50;;;14.40;99.90;;;;;;5014534;28;20587;-79
2022/12/29 03:00:16;;;;;;;2.10;0.50;;;14.40;99.90;;;;;;4996973;28;20679;-80
2022/12/29 03:02:56;;;;;;;1.50;0.50;;;14.40;99.90;;;;;;5013325;28;20588;-79
2022/12/29 03:05:30;;;;;;;1.00;0.40;;;14.40;99.90;;;;;;4999998;28;20576;-80
2022/12/29 03:08:23;;;;;;;1.10;0.40;;;14.40;99.90;;;;;;5014312;28;20580;-79
2022/12/29 03:11:01;;;;;;;1.50;0.50;;;14.40;99.90;;;;;;4996362;28;20568;-80
2022/12/29 03:16:41;;;;;;;1.20;0.60;;;14.40;99.90;;;;;;5012518;28;20569;-79
2022/12/29 03:19:10;;;;;;;1.40;0.40;;;14.40;99.90;;;;;;5012259;28;20679;-79
2022/12/29 03:24:34;;;;;;;1.20;0.40;;;14.40;99.90;;;;;;5012330;28;20683;-80
2022/12/29 03:27:04;;;;;;;1.37;0.40;;;14.40;99.90;;;;;;4996064;28;20626;-81
2022/12/29 03:29:41;;;;;;;1.03;0.40;;;14.30;99.90;;;;;;5012672;28;20619;-80
2022/12/29 03:32:11;;;;;;;1.10;0.40;;;14.30;99.90;;;;;;4979385;28;20581;-80
2022/12/29 03:34:38;;;;;;;1.10;0.40;;;14.30;99.90;;;;;;5011165;28;20584;-80
2022/12/29 03:37:14;;;;;;;1.60;0.40;;;14.30;99.90;;;;;;4995896;28;20592;-80
2022/12/29 03:39:41;;;;;;;1.10;0.40;;;14.30;99.90;;;;;;5012315;28;21194;-80
2022/12/29 03:42:11;;;;;;;1.40;0.50;;;14.30;99.90;;;;;;5012076;28;20581;-80
2022/12/29 03:44:39;;;;;;;2.07;0.43;;;14.30;99.90;;;;;;5000192;28;21256;-80
2022/12/29 03:47:06;;;;;;;1.40;0.40;;;14.30;99.90;;;;;;4995560;28;20569;-80
2022/12/29 03:49:32;;;;;;;1.00;0.40;;;14.40;99.90;;;;;;4995656;28;20615;-80
2022/12/29 03:51:58;;;;;;;1.10;0.40;;;14.40;99.90;;;;;;5012053;28;20959;-80
2022/12/29 03:54:25;;;;;;;1.10;0.40;;;14.40;99.90;;;;;;4995246;28;21348;-81
2022/12/29 03:56:52;;;;;;;1.60;0.50;;;14.40;99.90;;;;;;4996116;28;20592;-81
2022/12/29 03:59:27;;;;;;;1.20;0.40;;;14.40;99.90;;;;;;4995547;28;20643;-81
2022/12/29 04:01:52;;;;;;;1.00;0.40;;;14.30;99.90;;;;;;4995271;28;20668;-81
2022/12/29 04:04:18;;;;;;;1.17;0.47;;;14.30;99.90;;;;;;4994921;28;20646;-80
2022/12/29 04:06:44;;;;;;;1.10;0.40;;;14.20;99.90;;;;;;5011909;28;20174;-81
2022/12/29 04:09:10;;;;;;;1.00;0.40;;;14.20;99.90;;;;;;5011862;28;20691;-80
2022/12/29 04:11:40;;;;;;;1.20;0.47;;;14.20;99.90;;;;;;4995291;28;20233;-81
2022/12/29 04:14:06;;;;;;;1.10;0.50;;;14.10;99.90;;;;;;5005383;28;20580;-81
2022/12/29 04:16:35;;;;;;;1.87;0.50;;;14.00;99.90;;;;;;5048084;28;20572;-81
2022/12/29 04:19:02;;;;;;;1.20;0.70;;;14.00;99.90;;;;;;5014889;28;20632;-81
2022/12/29 04:21:28;;;;;;;1.10;0.50;;;14.00;99.90;;;;;;5036100;28;20584;-80
2022/12/29 04:23:54;;;;;;;1.10;0.40;;;13.90;99.90;;;;;;5014494;28;20936;-81
2022/12/29 04:26:19;;;;;;;1.20;0.53;;;13.90;99.90;;;;;;5014413;28;20180;-81
2022/12/29 04:28:53;;;;;;;1.10;0.40;;;13.80;99.90;;;;;;5015105;28;20738;-80
2022/12/29 04:31:45;;;;;;;2.17;0.60;;;13.80;99.90;;;;;;5043154;28;20600;-80
2022/12/29 04:34:11;;;;;;;1.47;0.50;;;13.70;99.90;;;;;;4994725;28;20947;-80
2022/12/29 04:36:39;;;;;;;1.33;0.40;;;13.70;99.90;;;;;;5010813;28;21167;-80
2022/12/29 04:39:05;;;;;;;1.30;0.50;;;13.70;99.90;;;;;;5027887;28;20636;-80
2022/12/29 04:41:32;;;;;;;2.50;0.50;;;13.70;99.90;;;;;;4994584;28;20608;-79
2022/12/29 04:43:58;;;;;;;1.10;0.50;;;13.70;99.90;;;;;;5011119;28;20584;-79
2022/12/29 04:46:42;;;;;;;2.10;0.50;;;13.60;99.90;;;;;;5030870;28;20587;-79
2022/12/29 04:49:22;;;;;;;1.93;0.50;;;13.70;99.90;;;;;;5015600;28;20189;-79
2022/12/29 04:51:53;;;;;;;2.43;0.77;;;13.70;99.90;;;;;;4998857;28;20622;-79
2022/12/29 04:54:19;;;;;;;1.70;0.57;;;13.70;99.90;;;;;;4998260;28;20643;-79
2022/12/29 04:56:53;;;;;;;3.87;0.60;;;13.80;99.90;;;;;;5034273;28;20979;-79
2022/12/29 04:59:19;;;;;;;1.40;0.60;;;13.80;99.90;;;;;;5031166;28;20644;-79
2022/12/29 05:01:48;;;;;;;1.73;0.50;;;13.90;99.90;;;;;;5014974;28;20178;-79
2022/12/29 05:04:14;;;;;;;1.00;0.40;;;14.00;99.90;;;;;;5014037;28;21297;-80
2022/12/29 05:06:41;;;;;;;1.30;0.50;;;14.00;99.90;;;;;;4998516;28;20599;-80
2022/12/29 05:09:07;;;;;;;1.20;0.50;;;14.00;99.90;;;;;;5031521;28;20616;-80
2022/12/29 05:11:34;;;;;;;1.30;0.50;;;14.00;99.90;;;;;;5013616;28;20207;-80
2022/12/29 05:14:00;;;;;;;1.10;0.50;;;14.00;99.90;;;;;;5013548;28;20598;-79
2022/12/29 05:16:27;;;;;;;2.17;0.40;;;14.00;99.90;;;;;;5014084;28;20588;-80
2022/12/29 05:18:52;;;;;;;1.50;0.50;;;14.00;99.90;;;;;;4997538;28;20632;-80
2022/12/29 05:21:19;;;;;;;1.10;0.40;;;14.00;99.90;;;;;;5013740;28;20181;-80
2022/12/29 05:23:44;;;;;;;2.43;0.47;;;14.00;99.90;;;;;;4998065;28;20580;-80
2022/12/29 05:26:10;;;;;;;1.50;0.50;;;14.00;99.90;;;;;;4998251;28;20169;-80
2022/12/29 05:28:47;;;;;;;1.87;0.47;;;14.00;99.90;;;;;;4983128;28;20658;-80
2022/12/29 05:31:17;;;;;;;1.13;0.40;;;14.00;99.90;;;;;;5008530;28;20579;-79
2022/12/29 05:33:43;;;;;;;1.43;0.53;;;14.00;99.90;;;;;;5034405;28;20593;-79
2022/12/29 05:36:09;;;;;;;1.07;0.40;;;14.00;99.90;;;;;;5022413;28;20599;-79
2022/12/29 05:38:38;;;;;;;1.20;0.40;;;14.00;99.90;;;;;;5018029;28;20247;-79
2022/12/29 05:41:04;;;;;;;1.60;0.50;;;14.00;99.90;;;;;;5017509;28;20579;-80
2022/12/29 05:43:50;;;;;;;1.30;0.40;;;14.00;99.90;;;;;;4970319;28;20208;-80
2022/12/29 05:46:27;;;;;;;1.10;0.50;;;14.00;99.90;;;;;;5052379;28;20575;-80
2022/12/29 05:49:12;;;;;;;1.10;0.50;;;14.00;99.90;;;;;;5020268;28;20685;-79
2022/12/29 05:51:51;;;;;;;1.10;0.40;;;14.00;99.90;;;;;;5034247;28;20575;-79
2022/12/29 05:54:17;;;;;;;1.20;0.47;;;14.00;99.90;;;;;;5017362;28;20614;-79
2022/12/29 05:56:43;;;;;;;1.40;0.40;;;14.00;99.90;;;;;;5017162;28;20633;-79
2022/12/29 05:59:09;;;;;;;1.17;0.40;;;14.10;99.90;;;;;;5034040;28;20284;-79
2022/12/29 06:01:36;;;;;;;1.30;0.60;;;14.10;99.90;;;;;;5034290;28;20638;-79
2022/12/29 06:04:02;;;;;;;1.10;0.50;;;14.10;99.90;;;;;;5008511;23;20680;-73
2022/12/29 06:06:27;;;;;;;1.30;0.50;;;14.10;99.90;;;;;;4978248;28;20589;-73
2022/12/29 06:08:53;;;;;;;1.30;0.40;;;14.20;99.90;;;;;;4997062;28;20187;-73
2022/12/29 06:11:20;;;;;;;1.30;0.60;;;14.20;99.90;;;;;;4990757;28;20644;-73
2022/12/29 06:13:52;;;;;;;1.77;0.93;;;14.20;99.90;;;;;;4945438;28;21421;-73
2022/12/29 06:16:17;;;;;;;5.57;0.50;;;14.20;99.90;;;;;;4955174;28;20590;-73
2022/12/29 06:18:43;;;;;;;2.60;0.50;;;14.20;99.90;;;;;;4939347;28;20199;-73
2022/12/29 06:21:09;;;;;;;1.10;0.50;;;14.30;99.90;;;;;;4954788;28;20678;-73
2022/12/29 06:23:35;;;;;;;1.30;0.50;;;14.30;99.90;;;;;;4958211;28;20665;-74
2022/12/29 06:26:03;;;;;;;1.80;0.50;;;14.30;99.90;;;;;;4987282;28;20579;-74
2022/12/29 06:28:28;;;;;;;1.07;0.40;;;14.30;99.90;;;;;;4955006;28;21478;-74
2022/12/29 06:30:55;;;;;;;1.60;0.50;;;14.30;99.90;;;;;;4971004;28;20953;-74
2022/12/29 06:33:21;;;;;;;1.60;0.40;;;14.40;99.90;;;;;;4954443;28;20619;-74
2022/12/29 06:35:46;;;;;;;1.10;0.40;;;14.40;99.90;;;;;;4954907;28;20183;-74
2022/12/29 06:38:13;;;;;;;1.00;0.40;;;14.40;99.90;;;;;;4972372;28;20168;-74
2022/12/29 06:40:41;;;;;;;2.17;0.40;;;14.40;99.90;;;;;;4971104;28;21135;-74
2022/12/29 06:43:28;;;;;;;1.20;0.50;;;14.40;99.90;;;;;;4939287;28;20195;-74
2022/12/29 06:46:23;;;;;;;1.93;0.50;;;14.40;99.90;;;;;;4962270;28;20593;-74
2022/12/29 06:48:48;;;;;;;1.40;0.60;;;14.40;99.90;;;;;;4954663;28;21154;-74
2022/12/29 06:51:14;;;;;;;1.20;0.43;;;14.40;99.90;;;;;;4970806;28;20187;-74
2022/12/29 06:53:40;;;;;;;1.00;0.40;;;14.40;99.90;;;;;;4971316;28;20192;-74
2022/12/29 06:56:06;;;;;;;1.10;0.40;;;14.40;99.90;;;;;;4972032;28;20589;-74
2022/12/29 06:58:31;;;;;;;1.87;0.50;;;14.40;99.90;;;;;;4971722;28;20210;-74
2022/12/29 07:00:58;;;;;;;1.07;0.40;;;14.40;99.90;;;;;;4971535;28;21155;-74
2022/12/29 07:03:24;;;;;;;1.20;0.40;;;14.40;99.90;;;;;;4979364;28;20207;-74
2022/12/29 07:05:49;;;;;;;1.20;0.50;;;14.40;99.90;;;;;;4970695;28;20595;-74
2022/12/29 07:08:15;;;;;;;1.10;0.40;;;14.40;99.90;;;;;;4988832;28;20207;-74
2022/12/29 07:10:41;;;;;;;1.20;0.50;;;14.40;99.90;;;;;;4972685;28;20175;-74
2022/12/29 07:13:07;;;;;;;1.97;0.50;;;14.40;99.90;;;;;;4980118;28;20234;-74
2022/12/29 07:15:34;;;;;;;1.13;0.40;;;14.40;99.90;;;;;;4989884;28;20263;-74
2022/12/29 07:17:59;;;;;;;1.30;0.50;;;14.40;99.90;;;;;;4991084;28;20589;-74
2022/12/29 07:20:25;;;;;;;1.50;0.50;;;14.40;99.90;;;;;;4957203;28;20669;-73
2022/12/29 07:22:51;;;;;;;1.33;0.40;;;14.40;99.90;;;;;;4972954;28;20191;-73
2022/12/29 07:25:17;;;;;;;1.50;0.50;;;14.40;99.90;;;;;;4972785;28;20234;-73
2022/12/29 07:27:42;;;;;;;1.20;0.40;;;14.40;99.90;;;;;;4973730;28;20178;-74
2022/12/29 07:30:09;;;;;;;1.67;0.50;;;14.40;99.90;;;;;;4973234;28;20598;-74
2022/12/29 07:32:35;;;;;;;1.40;0.50;;;14.40;99.90;;;;;;4973058;28;20556;-74
2022/12/29 07:35:01;;;;;;;1.40;0.50;;;14.40;99.90;;;;;;4990282;28;20581;-73
2022/12/29 07:37:27;;;;;;;2.03;0.50;;;14.40;99.90;;;;;;4973052;28;20690;-74
2022/12/29 07:39:53;;;;;;;1.50;0.40;;;14.40;99.90;;;;;;4972899;28;20202;-74
2022/12/29 07:42:19;;;;;;;1.30;0.50;;;14.40;99.90;;;;;;4990115;28;20617;-74
2022/12/29 07:44:50;;;;;;;1.77;0.50;;;14.40;99.90;;;;;;4972799;28;20633;-74
2022/12/29 07:47:18;;;;;;;1.33;0.40;;;14.30;99.90;;;;;;4990175;28;20985;-74
2022/12/29 07:49:44;;;;;;;2.30;1.43;;;14.30;99.90;;;;;;4990617;28;20582;-74
2022/12/29 07:52:10;;;;;;;2.07;0.70;;;14.30;99.90;;;;;;4956376;28;21133;-74
2022/12/29 07:54:35;;;;;;;1.53;0.60;;;14.30;99.90;;;;;;4955749;28;20582;-73
2022/12/29 07:57:01;;;;;;;1.67;0.50;;;14.40;99.90;;;;;;4990401;28;20163;-73
2022/12/29 07:59:27;;;;;;;1.67;0.60;;;14.40;99.90;;;;;;4990122;28;20206;-74
2022/12/29 08:01:53;;;;;;;1.90;0.60;;;14.40;99.90;;;;;;4990024;28;20530;-73
2022/12/29 08:04:19;;;;;;;3.67;0.60;;;14.40;99.90;;;;;;4988242;28;20288;-73
2022/12/29 08:06:45;;;;;;;2.43;0.60;;;14.40;99.90;;;;;;4956520;28;20586;-74
2022/12/29 08:09:11;;;;;;;2.60;0.60;;;14.40;99.90;;;;;;4989828;28;20558;-73
2022/12/29 08:11:36;;;;;;;1.40;0.50;;;14.40;99.90;;;;;;4988681;28;20601;-73
2022/12/29 08:14:03;;;;;;;1.67;0.60;;;14.50;99.90;;;;;;4971675;28;20201;-72
2022/12/29 08:16:28;;;;;;;4.30;0.60;;;14.50;99.90;;;;;;4990121;28;21118;-73
2022/12/29 08:18:54;;;;;;;4.50;0.60;;;14.50;99.90;;;;;;4989980;28;20625;-73
2022/12/29 08:21:20;;;;;;;1.87;0.70;;;14.50;99.90;;;;;;4988016;28;20257;-73
2022/12/29 08:23:47;;;;;;;3.93;0.60;;;14.50;99.90;;;;;;4988089;28;20203;-73
2022/12/29 08:26:12;;;;;;;2.10;0.63;;;14.50;99.90;;;;;;4956689;28;20560;-73
2022/12/29 08:28:38;;;;;;;4.17;0.80;;;14.40;99.90;;;;;;4951466;29;20631;-73
2022/12/29 08:31:04;;;;;;;1.53;0.50;;;14.40;99.90;;;;;;4931392;28;20175;-73
2022/12/29 08:33:30;;;;;;;2.93;0.70;;;14.40;99.90;;;;;;4971777;28;20211;-73
2022/12/29 08:36:02;;;;;;;1.87;0.53;;;14.30;99.90;;;;;;4971509;28;21365;-73
2022/12/29 08:38:28;;;;;;;1.43;0.50;;;14.30;99.90;;;;;;4971758;28;20650;-73
2022/12/29 08:40:55;;;;;;;2.33;0.60;;;14.30;99.90;;;;;;4971665;28;20574;-73
2022/12/29 08:43:20;;;;;;;2.67;0.70;;;14.20;99.90;;;;;;4970625;28;20658;-73
2022/12/29 08:45:46;;;;;;;2.60;0.60;;;14.20;99.90;;;;;;4971917;28;20671;-72
2022/12/29 08:48:12;;;;;;;2.13;0.70;;;14.10;99.90;;;;;;4954280;28;20674;-73
2022/12/29 08:50:38;;;;;;;3.40;0.70;;;14.10;99.90;;;;;;4972241;28;20168;-72
2022/12/29 08:53:04;;;;;;;2.93;0.67;;;14.00;99.90;;;;;;4971142;28;20191;-72
2022/12/29 08:55:29;;;;;;;1.70;0.57;;;14.00;99.90;;;;;;4971033;28;20222;-72
2022/12/29 08:57:56;;;;;;;2.80;0.60;;;14.00;99.90;;;;;;4963173;28;20167;-73
2022/12/29 09:00:23;;;;;;;3.20;0.60;;;14.00;99.90;;;;;;4973750;28;20641;-73
2022/12/29 09:02:51;;;;;;;3.10;0.70;;;14.00;99.90;;;;;;4957619;28;21157;-74
2022/12/29 09:05:17;;;;;;;3.57;0.60;;;14.00;99.90;;;;;;4991382;28;20581;-73
2022/12/29 09:07:42;;;;;;;2.37;0.60;;;14.00;99.90;;;;;;4990440;28;20772;-73
2022/12/29 09:10:08;;;;;;;3.37;0.70;;;14.00;99.90;;;;;;4991444;28;20209;-73
2022/12/29 09:12:34;;;;;;;1.93;0.70;;;14.00;99.90;;;;;;4985186;28;20190;-73
2022/12/29 09:15:00;;;;;;;1.77;0.60;;;14.00;99.90;;;;;;4982068;28;20594;-73
2022/12/29 09:17:45;;;;;;;2.50;0.70;;;14.00;99.90;;;;;;4955533;28;20631;-73
2022/12/29 09:20:17;;;;;;;1.67;0.60;;;14.00;99.90;;;;;;4975596;28;20638;-83
2022/12/29 09:22:43;;;;;;;2.97;0.70;;;14.00;99.90;;;;;;4980813;28;20259;-83
2022/12/29 09:25:09;;;;;;;5.77;0.90;;;14.00;99.90;;;;;;4969911;28;20602;-83
2022/12/29 09:27:35;;;;;;;4.23;0.70;;;14.00;99.90;;;;;;4992735;28;20650;-82
2022/12/29 09:30:03;;;;;;;6.47;1.07;;;14.10;99.90;;;;;;4987633;28;20611;-81
2022/12/29 09:32:29;;;;;;;3.83;0.80;;;14.10;99.90;;;;;;4955624;28;20595;-81
2022/12/29 09:34:55;;;;;;;4.67;0.90;;;14.10;99.90;;;;;;4957575;28;20590;-81
2022/12/29 09:37:21;;;;;;;4.33;1.17;;;14.20;99.90;;;;;;4974960;28;20175;-81
2022/12/29 09:39:47;;;;;;;3.70;1.10;;;14.20;99.90;;;;;;4958425;28;20230;-81
2022/12/29 09:42:35;;;;;;;3.50;1.00;;;14.30;99.90;;;;;;4973382;28;20595;-81
2022/12/29 09:45:18;;;;;;;5.47;1.50;;;14.30;99.90;;;;;;4975495;28;20178;-81
2022/12/29 09:47:45;;;;;;;2.83;0.80;;;14.40;99.90;;;;;;4973564;28;20587;-81
2022/12/29 09:50:17;;;;;;;2.70;0.63;;;14.50;99.90;;;;;;4958034;28;20982;-81
2022/12/29 09:52:59;;;;;;;2.80;0.70;;;14.50;99.90;;;;;;4974880;28;20681;-81
2022/12/29 09:55:42;;;;;;;3.00;0.70;;;14.60;99.90;;;;;;4975327;28;20606;-82
2022/12/29 09:58:15;;;;;;;4.03;0.90;;;14.60;99.90;;;;;;4973824;28;20590;-82
2022/12/29 10:00:58;;;;;;;3.33;0.80;;;14.70;99.90;;;;;;4975641;28;20591;-82
2022/12/29 10:03:35;;;;;;;5.63;0.70;;;14.70;99.90;;;;;;4974339;28;20685;-82
2022/12/29 10:06:15;;;;;;;2.50;0.90;;;14.80;99.90;;;;;;4961325;28;20649;-83
2022/12/29 10:09:12;;;;;;;3.30;0.63;;;14.80;99.90;;;;;;4949190;28;20637;-83
2022/12/29 10:11:44;;;;;;;2.70;0.80;;;14.80;99.90;;;;;;4976427;28;20626;-83
2022/12/29 10:14:21;;;;;;;3.03;0.70;;;14.90;99.90;;;;;;4970162;28;20615;-83
2022/12/29 10:17:23;;;;;;;2.20;0.70;;;14.90;99.90;;;;;;4988781;28;20605;-82
2022/12/29 10:19:49;;;;;;;3.13;0.53;;;14.90;99.90;;;;;;4967082;28;21002;-83
2022/12/29 10:22:28;;;;;;;2.03;0.70;;;14.90;99.90;;;;;;4986206;28;20595;-83
2022/12/29 10:24:56;;;;;;;2.77;0.70;;;15.00;99.90;;;;;;4955938;28;20175;-84
2022/12/29 10:27:23;;;;;;;10.13;1.63;;;15.00;99.90;;;;;;4958985;28;20602;-84
2022/12/29 10:29:55;;;;;;;4.17;0.77;;;15.10;99.90;;;;;;4978296;28;20699;-83
2022/12/29 10:32:34;;;;;;;2.20;0.60;;;15.10;99.90;;;;;;4988699;28;20602;-83
2022/12/29 10:35:06;;;;;;;2.60;0.60;;;15.20;99.90;;;;;;5000344;28;20678;-83
2022/12/29 10:37:51;;;;;;;2.67;0.80;;;15.20;99.90;;;;;;4995803;28;20981;-84
2022/12/29 10:40:49;;;;;;;4.07;0.60;;;15.20;99.90;;;;;;4993841;28;21056;-84
2022/12/29 10:43:29;;;;;;;3.03;0.60;;;15.30;99.90;;;;;;4970689;28;20725;-83
2022/12/29 10:46:01;;;;;;;2.93;0.60;;;15.30;99.90;;;;;;4989391;28;21037;-84
2022/12/29 10:48:31;;;;;;;4.13;0.90;;;15.40;99.90;;;;;;4979531;28;20609;-84
2022/12/29 10:50:59;;;;;;;3.50;0.70;;;15.40;99.90;;;;;;4980297;28;20581;-84
2022/12/29 10:53:33;;;;;;;1.93;0.60;;;15.40;99.90;;;;;;4963831;28;20610;-84
2022/12/29 10:56:00;;;;;;;1.97;0.60;;;15.40;99.90;;;;;;4999110;28;20637;-84
2022/12/29 10:58:29;;;;;;;2.97;0.70;;;15.40;99.90;;;;;;4994640;28;20634;-88
2022/12/29 11:00:54;;;;;;;3.43;0.70;;;15.50;99.90;;;;;;4981270;28;20614;-85
2022/12/29 11:03:45;;;;;;;2.97;0.80;;;15.50;99.90;;;;;;4987783;28;20641;-85
2022/12/29 11:06:13;;;;;;;2.47;0.70;;;15.50;99.90;;;;;;4996172;28;20578;-85
2022/12/29 11:09:12;;;;;;;2.70;1.00;;;15.50;99.90;;;;;;4995784;28;20582;-87
2022/12/29 11:11:38;;;;;;;3.20;1.20;;;15.50;99.90;;;;;;4981143;28;21005;-72
2022/12/29 11:14:31;;;;;;;2.90;1.13;;;15.60;99.90;;;;;;4992496;28;20656;-72
2022/12/29 11:17:02;;;;;;;3.20;1.30;;;15.50;99.90;;;;;;4975163;28;20185;-72
2022/12/29 11:19:33;;;;;;;4.20;0.80;;;15.60;99.90;;;;;;4975378;28;21026;-72
2022/12/29 11:22:14;;;;;;;5.20;0.70;;;15.60;99.90;;;;;;4992391;28;20669;-72
2022/12/29 11:24:48;;;;;;;2.30;0.90;;;15.60;99.90;;;;;;4991893;28;20608;-72
2022/12/29 11:27:25;;;;;;;2.90;0.80;;;15.60;99.90;;;;;;4964467;28;20603;-72
2022/12/29 11:29:54;;;;;;;2.57;0.70;;;15.70;99.90;;;;;;4971678;28;20599;-72
2022/12/29 11:32:23;;;;;;;5.97;0.80;;;15.70;99.90;;;;;;4954611;28;20982;-72
2022/12/29 11:34:50;;;;;;;3.83;0.80;;;15.70;99.90;;;;;;4970974;28;20940;-72
2022/12/29 11:37:19;;;;;;;4.17;0.70;;;15.70;99.90;;;;;;4974983;28;20595;-72
2022/12/29 11:39:58;;;;;;;3.83;0.87;;;15.70;99.90;;;;;;4987567;28;20635;-72
2022/12/29 11:42:38;;;;;;;2.47;0.90;;;15.70;99.90;;;;;;4971444;28;20630;-72
2022/12/29 11:45:22;;;;;;;3.53;0.80;;;15.60;99.90;;;;;;4972060;28;20618;-72
2022/12/29 11:48:09;;;;;;;3.67;0.80;;;15.60;99.90;;;;;;4971496;28;20583;-72
2022/12/29 11:50:41;;;;;;;3.73;1.20;;;15.70;99.90;;;;;;4970362;28;20590;-72
2022/12/29 11:53:24;;;;;;;3.13;0.97;;;15.70;99.90;;;;;;4954795;28;20634;-72
2022/12/29 11:55:56;;;;;;;7.20;1.50;;;15.70;99.90;;;;;;4970580;28;20689;-73
2022/12/29 11:58:32;;;;;;;5.03;1.50;;;15.70;99.90;;;;;;4972616;28;20582;-72
2022/12/29 12:01:03;;;;;;;5.37;0.87;;;15.70;99.90;;;;;;4981123;28;21196;-73
2022/12/29 12:03:32;;;;;;;3.97;1.10;;;15.70;99.90;;;;;;4970670;28;20634;-73
2022/12/29 12:06:01;;;;;;;2.00;0.67;;;15.70;99.90;;;;;;4970837;28;20575;-73
2022/12/29 12:08:47;;;;;;;2.73;0.90;;;15.70;99.90;;;;;;4972466;28;20630;-73
2022/12/29 12:11:48;;;;;;;2.33;0.90;;;15.70;99.90;;;;;;4954407;28;20630;-73
2022/12/29 12:14:23;;;;;;;5.17;1.40;;;15.70;99.90;;;;;;4917376;28;20614;-73
2022/12/29 12:17:23;;;;;;;8.30;3.50;;;15.80;99.90;;;;;;4938717;28;21147;-73
2022/12/29 12:20:02;;;;;;;4.40;2.10;;;15.80;99.90;;;;;;4972536;28;20970;-82
2022/12/29 12:22:38;;;;;;;6.40;1.47;;;15.80;99.90;;;;;;4978504;28;20583;-81
2022/12/29 12:25:16;;;;;;;3.17;1.27;;;15.80;99.90;;;;;;4966023;28;20730;-82
2022/12/29 12:27:50;;;;;;;2.50;0.90;;;15.70;99.90;;;;;;4970464;28;20591;-81
2022/12/29 12:30:26;;;;;;;3.87;1.00;;;15.70;99.90;;;;;;4955013;28;20649;-81
2022/12/29 12:33:16;;;;;;;3.00;0.70;;;15.70;99.90;;;;;;4954366;28;20623;-83
2022/12/29 12:35:57;;;;;;;4.07;0.80;;;15.60;99.90;;;;;;4957540;28;20571;-80
2022/12/29 12:38:41;;;;;;;5.27;0.90;;;15.60;99.90;;;;;;4951410;28;20599;-81
2022/12/29 12:41:21;;;;;;;3.80;1.87;;;15.50;99.90;;;;;;4952546;28;20604;-81
2022/12/29 12:44:10;;;;;;;5.83;2.03;;;15.50;99.90;;;;;;4976100;28;20641;-82
2022/12/29 12:47:04;;;;;;;3.60;1.43;;;15.50;99.90;;;;;;4986766;28;20571;-81
2022/12/29 12:50:01;;;;;;;4.37;1.20;;;15.50;99.90;;;;;;4970585;28;20630;-81
2022/12/29 12:52:37;;;;;;;9.20;3.47;;;15.50;99.90;;;;;;4972843;28;21399;-83
2022/12/29 12:55:24;;;;;;;7.87;2.50;;;15.50;99.90;;;;;;4972397;28;20623;-81
2022/12/29 12:58:01;;;;;;;5.50;1.73;;;15.50;99.90;;;;;;4971944;28;20579;-82
2022/12/29 13:00:32;;;;;;;2.80;1.40;;;15.60;99.90;;;;;;4935555;28;20688;-80
2022/12/29 13:03:24;;;;;;;4.60;1.10;;;15.60;99.90;;;;;;4977447;28;20638;-79
2022/12/29 13:06:31;;;;;;;5.13;1.30;;;15.50;99.90;;;;;;4970150;28;21314;-78
2022/12/29 13:08:59;;;;;;;5.17;0.80;;;15.50;99.90;;;;;;4974383;28;20594;-79
2022/12/29 13:11:39;;;;;;;6.23;3.03;;;15.60;99.90;;;;;;4994022;28;20636;-80
2022/12/29 13:14:24;;;;;;;5.70;1.30;;;15.60;99.90;;;;;;4996504;28;21006;-79
2022/12/29 13:17:05;;;;;;;4.80;2.00;;;15.60;99.90;;;;;;4977445;28;20609;-80
2022/12/29 13:19:43;;;;;;;4.90;1.20;;;15.50;99.90;;;;;;4994627;28;20633;-81
2022/12/29 13:22:47;;;;;;;3.73;1.10;;;15.50;99.90;;;;;;4994757;28;20721;-79
2022/12/29 13:25:40;;;;;;;8.90;2.77;;;15.40;99.90;;;;;;4993359;28;20621;-78
2022/12/29 13:28:32;;;;;;;8.57;3.00;;;15.40;99.90;;;;;;4979151;28;20602;-79
2022/12/29 13:31:20;;;;;;;15.43;7.50;;;15.30;99.90;;;;;;4990514;28;20630;-79
2022/12/29 13:34:04;;;;;;;14.30;8.00;;;15.30;99.90;;;;;;4950775;28;20713;-79
2022/12/29 13:36:42;;;;;;;12.77;7.50;;;15.20;99.90;;;;;;4975291;28;20575;-79
2022/12/29 13:39:27;;;;;;;22.37;12.03;;;15.20;99.90;;;;;;4973462;28;20630;-79
2022/12/29 13:41:55;;;;;;;33.93;13.50;;;15.10;99.90;;;;;;4976637;28;20674;-79
2022/12/29 13:44:26;;;;;;;19.27;8.90;;;15.10;99.90;;;;;;4968454;28;21278;-79